Time;durP1;ratioP1;P1;durP2;ratioP2;P2;SDS_P1;SDS_P2;PMS_P1;PMS_P2;Temp;Humidity;BMP_temperature;BMP_pressure;BME280_temperature;BME280_humidity;BME280_pressure;Samples;Min_cycle;Max_cycle;Signal;HPM_P1;HPM_P2
2023/11/06 00:01:29;;;;;;;;;;;22.30;48.20;;;;;;5113721;28;20022;-58
2023/11/06 00:03:56;;;;;;;;;;;22.30;48.20;;;;;;5114919;28;19924;-59
2023/11/06 00:06:23;;;;;;;;;;;22.30;48.20;;;;;;5114852;28;20322;-58
2023/11/06 00:08:50;;;;;;;;;;;22.30;48.30;;;;;;5114955;28;19954;-58
2023/11/06 00:11:16;;;;;;;;;;;22.30;48.30;;;;;;5114402;28;19928;-57
2023/11/06 00:13:44;;;;;;;;;;;22.30;48.30;;;;;;5114579;28;20010;-59
2023/11/06 00:16:11;;;;;;;;;;;22.30;48.30;;;;;;5114695;28;19931;-58
2023/11/06 00:18:52;;;;;;;;;;;22.30;48.30;;;;;;5114408;28;19923;-58
2023/11/06 00:21:19;;;;;;;;;;;22.30;48.30;;;;;;5114638;28;19924;-58
2023/11/06 00:23:46;;;;;;;;;;;22.30;48.20;;;;;;5114544;28;19977;-58
2023/11/06 00:26:14;;;;;;;;;;;22.30;48.20;;;;;;5114805;28;19924;-58
2023/11/06 00:28:42;;;;;;;;;;;22.30;48.20;;;;;;5114337;28;20022;-58
2023/11/06 00:31:09;;;;;;;;;;;22.30;48.20;;;;;;5114850;28;19923;-58
2023/11/06 00:33:39;;;;;;;;;;;22.30;48.20;;;;;;5114250;28;19945;-58
2023/11/06 00:36:16;;;;;;;;;;;22.30;48.20;;;;;;5114296;28;19946;-59
2023/11/06 00:38:43;;;;;;;;;;;22.30;48.20;;;;;;5114206;28;19923;-58
2023/11/06 00:41:11;;;;;;;;;;;22.30;48.20;;;;;;5114250;28;19931;-57
2023/11/06 00:43:38;;;;;;;;;;;22.30;48.20;;;;;;5113595;28;20281;-58
2023/11/06 00:46:05;;;;;;;;;;;22.30;48.20;;;;;;5114449;28;19978;-58
2023/11/06 00:48:33;;;;;;;;;;;22.30;48.20;;;;;;5114532;28;19924;-57
2023/11/06 00:51:00;;;;;;;;;;;22.30;48.20;;;;;;5113799;28;20014;-57
2023/11/06 00:53:27;;;;;;;;;;;22.30;48.20;;;;;;5095700;28;19946;-58
2023/11/06 00:55:54;;;;;;;;;;;22.30;48.20;;;;;;5114203;28;19931;-59
2023/11/06 00:58:21;;;;;;;;;;;22.30;48.20;;;;;;5113664;28;19970;-58
2023/11/06 01:00:49;;;;;;;;;;;22.20;48.10;;;;;;5113317;28;20014;-58
2023/11/06 01:03:16;;;;;;;;;;;22.20;48.10;;;;;;5114275;28;19924;-59
2023/11/06 01:05:43;;;;;;;;;;;22.30;48.20;;;;;;5113695;28;20403;-60
2023/11/06 01:08:10;;;;;;;;;;;22.30;48.20;;;;;;5113948;28;19923;-59
2023/11/06 01:10:37;;;;;;;;;;;22.30;48.20;;;;;;5113556;28;20005;-58
2023/11/06 01:13:04;;;;;;;;;;;22.20;48.20;;;;;;5113533;28;19985;-59
2023/11/06 01:15:31;;;;;;;;;;;22.30;48.30;;;;;;5113731;28;19923;-59
2023/11/06 01:17:59;;;;;;;;;;;22.30;48.30;;;;;;5113353;28;20019;-59
2023/11/06 01:20:26;;;;;;;;;;;22.30;48.30;;;;;;5113686;28;20257;-60
2023/11/06 01:22:53;;;;;;;;;;;22.30;48.30;;;;;;5113371;28;19977;-59
2023/11/06 01:25:21;;;;;;;;;;;22.30;48.30;;;;;;5095549;28;20384;-57
2023/11/06 01:27:48;;;;;;;;;;;22.30;48.30;;;;;;5113626;28;19931;-59
2023/11/06 01:30:15;;;;;;;;;;;22.20;48.20;;;;;;5113314;28;19927;-59
2023/11/06 01:32:42;;;;;;;;;;;22.30;48.30;;;;;;5095741;28;20338;-58
2023/11/06 01:35:11;;;;;;;;;;;22.30;48.30;;;;;;5099221;28;19929;-59
2023/11/06 01:37:38;;;;;;;;;;;22.20;48.30;;;;;;5093118;28;19990;-59
2023/11/06 01:40:10;;;;;;;;;;;22.30;48.30;;;;;;5093163;28;19935;-59
2023/11/06 01:42:37;;;;;;;;;;;22.20;48.30;;;;;;5093266;28;19946;-59
2023/11/06 01:45:07;;;;;;;;;;;22.30;48.40;;;;;;5093164;28;20049;-58
2023/11/06 01:47:34;;;;;;;;;;;22.30;48.40;;;;;;5092689;28;19931;-58
2023/11/06 01:50:03;;;;;;;;;;;22.30;48.40;;;;;;5092533;28;19979;-59
2023/11/06 01:52:30;;;;;;;;;;;22.20;48.30;;;;;;5093343;28;19928;-58
2023/11/06 01:54:58;;;;;;;;;;;22.30;48.40;;;;;;5074947;28;19924;-59
2023/11/06 01:57:26;;;;;;;;;;;22.30;48.40;;;;;;5093369;28;19924;-58
2023/11/06 01:59:54;;;;;;;;;;;22.30;48.40;;;;;;5093135;28;20403;-59
2023/11/06 02:02:22;;;;;;;;;;;22.20;48.30;;;;;;5102882;28;19924;-59
2023/11/06 02:04:50;;;;;;;;;;;22.20;48.20;;;;;;5113751;28;19924;-59
2023/11/06 02:07:17;;;;;;;;;;;22.20;48.20;;;;;;5112651;28;19924;-59
2023/11/06 02:09:44;;;;;;;;;;;22.30;48.20;;;;;;5113290;28;19927;-59
2023/11/06 02:12:11;;;;;;;;;;;22.30;48.20;;;;;;5113357;28;19931;-60
2023/11/06 02:14:49;;;;;;;;;;;22.30;48.20;;;;;;5112871;28;20355;-59
2023/11/06 02:17:16;;;;;;;;;;;22.30;48.20;;;;;;5113510;28;19931;-59
2023/11/06 02:19:43;;;;;;;;;;;22.30;48.20;;;;;;5113282;28;19924;-59
2023/11/06 02:22:10;;;;;;;;;;;22.20;48.20;;;;;;5113464;28;19931;-58
2023/11/06 02:24:40;;;;;;;;;;;22.30;48.20;;;;;;5114026;28;19933;-58
2023/11/06 02:27:08;;;;;;;;;;;22.20;48.20;;;;;;5116687;28;19924;-58
2023/11/06 02:29:35;;;;;;;;;;;22.20;48.20;;;;;;5116891;28;20349;-58
2023/11/06 02:32:03;;;;;;;;;;;22.20;48.20;;;;;;5113183;28;20441;-58
2023/11/06 02:34:30;;;;;;;;;;;22.20;48.20;;;;;;5109772;28;20384;-57
2023/11/06 02:36:57;;;;;;;;;;;22.20;48.30;;;;;;5116717;28;19973;-57
2023/11/06 02:39:24;;;;;;;;;;;22.20;48.30;;;;;;5116122;28;20330;-57
2023/11/06 02:41:51;;;;;;;;;;;22.20;48.30;;;;;;5116464;28;19961;-57
2023/11/06 02:44:18;;;;;;;;;;;22.20;48.30;;;;;;5098779;28;19930;-58
2023/11/06 02:46:46;;;;;;;;;;;22.20;48.30;;;;;;5116552;28;19954;-57
2023/11/06 02:49:13;;;;;;;;;;;22.20;48.30;;;;;;5116677;28;20302;-57
2023/11/06 02:51:40;;;;;;;;;;;22.20;48.30;;;;;;5116318;28;19923;-57
2023/11/06 02:54:07;;;;;;;;;;;22.20;48.30;;;;;;5116149;28;19978;-57
2023/11/06 02:56:34;;;;;;;;;;;22.20;48.40;;;;;;5115971;28;19959;-58
2023/11/06 02:59:05;;;;;;;;;;;22.20;48.30;;;;;;5116039;28;20406;-58
2023/11/06 03:01:33;;;;;;;;;;;22.20;48.40;;;;;;5115471;28;20376;-58
2023/11/06 03:04:00;;;;;;;;;;;22.20;48.30;;;;;;5116311;28;19927;-59
2023/11/06 03:06:28;;;;;;;;;;;22.10;48.30;;;;;;5115818;28;19924;-58
2023/11/06 03:08:55;;;;;;;;;;;22.10;48.30;;;;;;5115986;28;19985;-58
2023/11/06 03:11:22;;;;;;;;;;;22.20;48.40;;;;;;5115274;28;20387;-58
2023/11/06 03:13:49;;;;;;;;;;;22.20;48.40;;;;;;5115431;28;20467;-58
2023/11/06 03:16:18;;;;;;;;;;;22.20;48.40;;;;;;5115532;28;20478;-58
2023/11/06 03:18:45;;;;;;;;;;;22.10;48.40;;;;;;5116102;28;19932;-59
2023/11/06 03:21:12;;;;;;;;;;;22.10;48.40;;;;;;5115503;28;19924;-59
2023/11/06 03:23:39;;;;;;;;;;;22.10;48.40;;;;;;5115579;28;19973;-59
2023/11/06 03:26:06;;;;;;;;;;;22.10;48.40;;;;;;5115732;28;20018;-58
2023/11/06 03:28:34;;;;;;;;;;;22.10;48.40;;;;;;5115335;28;20330;-56
2023/11/06 03:31:01;;;;;;;;;;;22.10;48.40;;;;;;5115249;28;20018;-56
2023/11/06 03:33:28;;;;;;;;;;;22.10;48.40;;;;;;5098024;28;19969;-57
2023/11/06 03:35:55;;;;;;;;;;;22.10;48.40;;;;;;5115096;28;19924;-57
2023/11/06 03:38:22;;;;;;;;;;;22.10;48.50;;;;;;5115865;28;20342;-58
2023/11/06 03:40:49;;;;;;;;;;;22.10;48.40;;;;;;5115419;28;19990;-58
2023/11/06 03:43:16;;;;;;;;;;;22.20;48.40;;;;;;5115696;28;20072;-57
2023/11/06 03:45:43;;;;;;;;;;;22.20;48.40;;;;;;5115315;28;19928;-58
2023/11/06 03:48:10;;;;;;;;;;;22.20;48.40;;;;;;5115615;28;20332;-57
2023/11/06 03:50:42;;;;;;;;;;;22.10;48.30;;;;;;5115016;28;19930;-57
2023/11/06 03:53:09;;;;;;;;;;;22.10;48.30;;;;;;5115037;28;19924;-57
2023/11/06 03:55:36;;;;;;;;;;;22.10;48.30;;;;;;5114680;28;19930;-57
2023/11/06 03:58:04;;;;;;;;;;;22.10;48.30;;;;;;5114979;28;19963;-58
2023/11/06 04:00:31;;;;;;;;;;;22.10;48.30;;;;;;5115113;28;20367;-58
2023/11/06 04:02:59;;;;;;;;;;;22.10;48.40;;;;;;5114607;28;19969;-58
2023/11/06 04:05:29;;;;;;;;;;;22.10;48.40;;;;;;5114863;28;19928;-58
2023/11/06 04:07:57;;;;;;;;;;;22.10;48.90;;;;;;5120478;27;20006;-58
2023/11/06 04:10:24;;;;;;;;;;;22.10;48.40;;;;;;5135626;27;19970;-57
2023/11/06 04:12:51;;;;;;;;;;;22.10;48.40;;;;;;5134833;27;19976;-55
2023/11/06 04:15:18;;;;;;;;;;;22.10;48.40;;;;;;5134691;27;19923;-57
2023/11/06 04:17:45;;;;;;;;;;;22.10;48.40;;;;;;5133727;27;19923;-58
2023/11/06 04:20:13;;;;;;;;;;;22.10;48.40;;;;;;5134826;27;20006;-58
2023/11/06 04:22:40;;;;;;;;;;;22.10;48.40;;;;;;5135212;27;20034;-58
2023/11/06 04:25:08;;;;;;;;;;;22.10;48.40;;;;;;5134955;27;19923;-57
2023/11/06 04:27:35;;;;;;;;;;;22.10;48.40;;;;;;5134722;27;19923;-59
2023/11/06 04:30:02;;;;;;;;;;;22.10;48.40;;;;;;5135353;27;19930;-57
2023/11/06 04:32:29;;;;;;;;;;;22.00;48.40;;;;;;5135253;27;19965;-57
2023/11/06 04:34:56;;;;;;;;;;;22.00;48.40;;;;;;5098411;28;19951;-56
2023/11/06 04:37:23;;;;;;;;;;;22.00;48.40;;;;;;5114288;28;19924;-57
2023/11/06 04:39:50;;;;;;;;;;;22.00;48.40;;;;;;5096340;28;19927;-58
2023/11/06 04:42:18;;;;;;;;;;;22.10;48.30;;;;;;5114190;28;20437;-57
2023/11/06 04:44:45;;;;;;;;;;;22.10;48.10;;;;;;5114678;28;19969;-58
2023/11/06 04:47:12;;;;;;;;;;;22.10;47.90;;;;;;5113944;28;19935;-58
2023/11/06 04:49:39;;;;;;;;;;;22.10;47.70;;;;;;5113746;28;19924;-58
2023/11/06 04:52:06;;;;;;;;;;;22.10;47.60;;;;;;5113743;28;19923;-58
2023/11/06 04:54:33;;;;;;;;;;;22.10;47.50;;;;;;5113991;28;20463;-57
2023/11/06 04:57:00;;;;;;;;;;;22.20;47.40;;;;;;5113857;28;19924;-58
2023/11/06 04:59:27;;;;;;;;;;;22.20;47.40;;;;;;5113861;28;19923;-57
2023/11/06 05:01:55;;;;;;;;;;;22.20;47.40;;;;;;5113527;28;19982;-57
2023/11/06 05:04:21;;;;;;;;;;;22.10;47.30;;;;;;5113815;28;20310;-57
2023/11/06 05:06:49;;;;;;;;;;;22.10;47.30;;;;;;5113827;28;19924;-57
2023/11/06 05:09:16;;;;;;;;;;;22.10;47.30;;;;;;5113661;28;19977;-57
2023/11/06 05:11:43;;;;;;;;;;;22.10;47.30;;;;;;5114025;28;20352;-58
2023/11/06 05:14:10;;;;;;;;;;;22.10;47.30;;;;;;5113991;28;19924;-57
2023/11/06 05:16:37;;;;;;;;;;;22.10;47.30;;;;;;5113528;28;19932;-57
2023/11/06 05:19:04;;;;;;;;;;;22.00;47.30;;;;;;5113099;28;19923;-57
2023/11/06 05:21:31;;;;;;;;;;;22.10;47.30;;;;;;5113694;28;19924;-57
2023/11/06 05:23:58;;;;;;;;;;;22.00;47.20;;;;;;5113517;28;19924;-57
2023/11/06 05:26:25;;;;;;;;;;;22.00;47.30;;;;;;5113346;28;19923;-57
2023/11/06 05:28:52;;;;;;;;;;;22.00;47.20;;;;;;5113280;28;20026;-56
2023/11/06 05:31:19;;;;;;;;;;;22.00;47.20;;;;;;5113474;28;19931;-56
2023/11/06 05:33:46;;;;;;;;;;;22.00;47.20;;;;;;5113562;28;19927;-58
2023/11/06 05:36:16;;;;;;;;;;;22.00;47.20;;;;;;5113226;28;19923;-57
2023/11/06 05:38:44;;;;;;;;;;;22.00;47.20;;;;;;5113320;28;20290;-57
2023/11/06 05:41:11;;;;;;;;;;;22.00;47.10;;;;;;5109928;28;19924;-58
2023/11/06 05:43:39;;;;;;;;;;;22.00;47.10;;;;;;5112822;28;19924;-58
2023/11/06 05:46:06;;;;;;;;;;;22.00;47.00;;;;;;5114051;28;19924;-56
2023/11/06 05:48:33;;;;;;;;;;;22.00;47.00;;;;;;5103094;28;19924;-57
2023/11/06 05:51:01;;;;;;;;;;;22.00;47.00;;;;;;5113040;28;19931;-58
2023/11/06 05:53:28;;;;;;;;;;;22.10;47.00;;;;;;5113248;28;20325;-58
2023/11/06 05:55:55;;;;;;;;;;;22.10;46.90;;;;;;5095851;28;19923;-57
2023/11/06 05:58:22;;;;;;;;;;;22.10;46.90;;;;;;5112208;28;20291;-59
2023/11/06 06:00:49;;;;;;;;;;;22.10;46.80;;;;;;5112063;28;19977;-58
2023/11/06 06:03:16;;;;;;;;;;;22.10;46.80;;;;;;5117227;28;20273;-58
2023/11/06 06:05:43;;;;;;;;;;;22.10;46.80;;;;;;5116979;28;19931;-59
2023/11/06 06:08:11;;;;;;;;;;;22.10;46.70;;;;;;5116363;28;19928;-58
2023/11/06 06:10:39;;;;;;;;;;;22.10;46.70;;;;;;5116798;28;19951;-58
2023/11/06 06:13:06;;;;;;;;;;;22.10;46.70;;;;;;5099623;28;19924;-58
2023/11/06 06:15:33;;;;;;;;;;;22.10;46.60;;;;;;5117879;27;20291;-58
2023/11/06 06:18:01;;;;;;;;;;;22.10;46.60;;;;;;5114519;27;20364;-56
2023/11/06 06:20:29;;;;;;;;;;;22.10;46.60;;;;;;5109791;27;20001;-57
2023/11/06 06:22:56;;;;;;;;;;;22.10;46.70;;;;;;5118685;27;19924;-56
2023/11/06 06:25:24;;;;;;;;;;;22.10;46.80;;;;;;5115973;27;19959;-60
2023/11/06 06:27:51;;;;;;;;;;;22.10;47.10;;;;;;5113799;27;20990;-57
2023/11/06 06:30:18;;;;;;;;;;;22.10;47.10;;;;;;5075515;27;19924;-59
2023/11/06 06:32:45;;;;;;;;;;;22.10;47.20;;;;;;5106366;27;19985;-57
2023/11/06 06:35:13;;;;;;;;;;;22.10;47.40;;;;;;5110231;27;19928;-57
2023/11/06 06:37:40;;;;;;;;;;;22.20;47.60;;;;;;5102055;27;20388;-58
2023/11/06 06:40:08;;;;;;;;;;;22.20;47.60;;;;;;5106474;27;19931;-58
2023/11/06 06:42:36;;;;;;;;;;;22.20;47.60;;;;;;5100382;27;19932;-58
2023/11/06 06:45:07;;;;;;;;;;;22.20;47.50;;;;;;5109139;27;20350;-58
2023/11/06 06:47:35;;;;;;;;;;;22.30;47.60;;;;;;5111977;27;19946;-59
2023/11/06 06:50:03;;;;;;;;;;;22.30;47.60;;;;;;5103615;27;19932;-59
2023/11/06 06:52:31;;;;;;;;;;;22.40;47.60;;;;;;5104044;27;19942;-58
2023/11/06 06:54:58;;;;;;;;;;;22.40;47.60;;;;;;5101816;27;19950;-57
2023/11/06 06:57:26;;;;;;;;;;;22.50;47.70;;;;;;5107071;27;19928;-59
2023/11/06 06:59:53;;;;;;;;;;;22.50;47.70;;;;;;5104662;27;20022;-57
2023/11/06 07:02:20;;;;;;;;;;;22.60;47.70;;;;;;5105270;27;19971;-58
2023/11/06 07:04:48;;;;;;;;;;;22.60;47.70;;;;;;5105224;27;20022;-59
2023/11/06 07:07:15;;;;;;;;;;;22.60;47.60;;;;;;5102985;27;19927;-59
2023/11/06 07:09:42;;;;;;;;;;;22.70;47.40;;;;;;5089931;27;20000;-57
2023/11/06 07:12:09;;;;;;;;;;;22.70;47.50;;;;;;5105962;27;19962;-60
2023/11/06 07:14:37;;;;;;;;;;;22.70;47.60;;;;;;5109865;27;19985;-59
2023/11/06 07:17:04;;;;;;;;;;;22.80;47.90;;;;;;5106541;27;19924;-58
2023/11/06 07:19:33;;;;;;;;;;;22.80;47.80;;;;;;5108274;27;19923;-57
2023/11/06 07:22:01;;;;;;;;;;;22.90;47.80;;;;;;5107595;27;19982;-57
2023/11/06 07:24:29;;;;;;;;;;;22.90;47.90;;;;;;5090885;27;19985;-56
2023/11/06 07:26:56;;;;;;;;;;;22.90;47.90;;;;;;5115607;27;20405;-55
2023/11/06 07:29:23;;;;;;;;;;;23.00;47.80;;;;;;5104547;27;20078;-58
2023/11/06 07:31:52;;;;;;;;;;;23.00;47.80;;;;;;5102945;27;20032;-58
2023/11/06 07:34:20;;;;;;;;;;;23.00;47.70;;;;;;5103395;27;19928;-57
2023/11/06 07:36:50;;;;;;;;;;;23.10;47.60;;;;;;5099595;27;20031;-58
2023/11/06 07:39:18;;;;;;;;;;;23.10;47.50;;;;;;5099944;27;19927;-58
2023/11/06 07:41:50;;;;;;;;;;;23.10;47.30;;;;;;5100138;28;19982;-59
2023/11/06 07:44:17;;;;;;;;;;;23.10;47.20;;;;;;5106947;27;19928;-60
2023/11/06 07:46:44;;;;;;;;;;;23.20;47.10;;;;;;5104031;27;19923;-59
2023/11/06 07:49:12;;;;;;;;;;;23.20;47.00;;;;;;5090954;28;20025;-60
2023/11/06 07:51:39;;;;;;;;;;;23.20;47.00;;;;;;5081304;28;19986;-60
2023/11/06 07:54:07;;;;;;;;;;;23.30;46.90;;;;;;5101138;27;20371;-61
2023/11/06 07:56:36;;;;;;;;;;;23.30;46.80;;;;;;5090171;28;19928;-60
2023/11/06 07:59:04;;;;;;;;;;;23.30;46.70;;;;;;5103049;27;20031;-59
2023/11/06 08:01:31;;;;;;;;;;;23.40;46.70;;;;;;5105302;27;19932;-59
2023/11/06 08:03:58;;;;;;;;;;;23.40;46.70;;;;;;5089678;28;19932;-59
2023/11/06 08:06:26;;;;;;;;;;;23.40;46.60;;;;;;5105906;27;19924;-59
2023/11/06 08:08:54;;;;;;;;;;;23.50;46.60;;;;;;5039825;28;19924;-57
2023/11/06 08:11:21;;;;;;;;;;;23.50;46.50;;;;;;5115438;27;19932;-58
2023/11/06 08:13:49;;;;;;;;;;;23.50;46.40;;;;;;5090841;27;19986;-58
2023/11/06 08:16:16;;;;;;;;;;;23.60;46.40;;;;;;5100989;27;19996;-57
2023/11/06 08:18:44;;;;;;;;;;;23.60;46.30;;;;;;5100267;27;20014;-60
2023/11/06 08:21:12;;;;;;;;;;;23.60;46.30;;;;;;5101790;27;19931;-59
2023/11/06 08:23:39;;;;;;;;;;;23.70;46.30;;;;;;5097321;27;19936;-59
2023/11/06 08:26:08;;;;;;;;;;;23.70;46.30;;;;;;5083376;28;19924;-58
2023/11/06 08:28:35;;;;;;;;;;;23.70;46.20;;;;;;5108146;27;19924;-60
2023/11/06 08:31:04;;;;;;;;;;;23.70;46.20;;;;;;5090811;27;19932;-61
2023/11/06 08:33:32;;;;;;;;;;;23.80;46.10;;;;;;5088396;28;19935;-62
2023/11/06 08:36:00;;;;;;;;;;;23.90;46.10;;;;;;5105503;27;19931;-60
2023/11/06 08:38:27;;;;;;;;;;;23.90;46.00;;;;;;5108891;27;20367;-59
2023/11/06 08:40:54;;;;;;;;;;;23.90;46.00;;;;;;5102675;27;19974;-60
2023/11/06 08:43:22;;;;;;;;;;;24.00;45.90;;;;;;5102518;27;19928;-60
2023/11/06 08:45:49;;;;;;;;;;;24.00;45.80;;;;;;5108359;27;19931;-60
2023/11/06 08:48:16;;;;;;;;;;;24.00;45.70;;;;;;5106807;27;19963;-59
2023/11/06 08:50:43;;;;;;;;;;;24.10;45.60;;;;;;5098478;28;19931;-59
2023/11/06 08:53:10;;;;;;;;;;;24.10;45.60;;;;;;5105407;27;19997;-60
2023/11/06 08:55:38;;;;;;;;;;;24.10;45.40;;;;;;5106093;27;19980;-59
2023/11/06 08:58:09;;;;;;;;;;;24.10;45.30;;;;;;5103377;27;19928;-59
2023/11/06 09:00:39;;;;;;;;;;;24.20;45.30;;;;;;5102641;27;20333;-60
2023/11/06 09:03:08;;;;;;;;;;;24.10;45.30;;;;;;5087677;28;20355;-61
2023/11/06 09:05:37;;;;;;;;;;;24.20;45.30;;;;;;5085206;28;20014;-60
2023/11/06 09:08:04;;;;;;;;;;;24.20;45.20;;;;;;5098738;27;19958;-60
2023/11/06 09:10:32;;;;;;;;;;;24.20;45.10;;;;;;5081600;28;20482;-59
2023/11/06 09:13:00;;;;;;;;;;;24.20;45.00;;;;;;5089775;28;19989;-59
2023/11/06 09:15:27;;;;;;;;;;;24.20;45.00;;;;;;5099046;28;20694;-59
2023/11/06 09:17:55;;;;;;;;;;;24.30;45.00;;;;;;5082696;28;19928;-60
2023/11/06 09:20:23;;;;;;;;;;;24.30;45.00;;;;;;5096905;28;20276;-59
2023/11/06 09:22:50;;;;;;;;;;;24.30;45.00;;;;;;5093769;27;19934;-59
2023/11/06 09:25:18;;;;;;;;;;;24.30;44.90;;;;;;5098846;28;19924;-59
2023/11/06 09:27:45;;;;;;;;;;;24.40;45.00;;;;;;5100485;28;19932;-59
2023/11/06 09:30:13;;;;;;;;;;;24.40;45.00;;;;;;5100628;28;19959;-57
2023/11/06 09:32:42;;;;;;;;;;;24.50;44.80;;;;;;5104701;28;20345;-59
2023/11/06 09:35:11;;;;;;;;;;;24.50;44.80;;;;;;5086725;27;19932;-57
2023/11/06 09:37:39;;;;;;;;;;;24.50;44.70;;;;;;5108464;27;19935;-59
2023/11/06 09:40:07;;;;;;;;;;;24.60;44.60;;;;;;5106950;27;20023;-58
2023/11/06 09:42:34;;;;;;;;;;;24.60;44.40;;;;;;5105725;28;20402;-61
2023/11/06 09:45:02;;;;;;;;;;;24.60;44.20;;;;;;5112160;27;19932;-57
2023/11/06 09:47:29;;;;;;;;;;;24.60;44.10;;;;;;5109492;27;20359;-60
2023/11/06 09:50:05;;;;;;;;;;;24.60;44.00;;;;;;5106258;28;19924;-60
2023/11/06 09:52:32;;;;;;;;;;;24.70;44.10;;;;;;5103464;27;19927;-58
2023/11/06 09:55:00;;;;;;;;;;;24.70;44.00;;;;;;5109820;27;19963;-58
2023/11/06 09:57:28;;;;;;;;;;;24.70;43.90;;;;;;5095798;27;20355;-59
2023/11/06 09:59:55;;;;;;;;;;;24.70;43.90;;;;;;5103412;27;20437;-59
2023/11/06 10:02:25;;;;;;;;;;;24.70;43.80;;;;;;5110545;27;19970;-59
2023/11/06 10:04:52;;;;;;;;;;;24.70;43.80;;;;;;5100332;27;19942;-59
2023/11/06 10:07:40;;;;;;;;;;;24.70;44.30;;;;;;5102241;27;20372;-60
2023/11/06 10:10:14;;;;;;;;;;;24.70;43.90;;;;;;5093330;27;19924;-60
2023/11/06 10:12:43;;;;;;;;;;;24.70;44.00;;;;;;5091695;28;19968;-59
2023/11/06 10:15:13;;;;;;;;;;;24.70;43.80;;;;;;5104189;27;19971;-59
2023/11/06 10:17:40;;;;;;;;;;;24.70;43.70;;;;;;5106239;28;19931;-60
2023/11/06 10:20:14;;;;;;;;;;;24.70;43.60;;;;;;5100740;27;20000;-59
2023/11/06 10:22:53;;;;;;;;;;;24.70;43.60;;;;;;5105006;27;19927;-60
2023/11/06 10:25:30;;;;;;;;;;;24.70;43.40;;;;;;5104730;27;19992;-60
2023/11/06 10:27:57;;;;;;;;;;;24.70;43.60;;;;;;5104064;27;19962;-59
2023/11/06 10:30:25;;;;;;;;;;;24.70;43.60;;;;;;5101126;27;22087;-62
2023/11/06 10:32:53;;;;;;;;;;;24.70;43.70;;;;;;5106418;27;20314;-61
2023/11/06 10:35:20;;;;;;;;;;;24.70;43.50;;;;;;5107189;27;19999;-62
2023/11/06 10:37:48;;;;;;;;;;;24.70;43.60;;;;;;5110515;27;20378;-62
2023/11/06 10:40:19;;;;;;;;;;;24.70;43.60;;;;;;5103431;27;19924;-62
2023/11/06 10:42:47;;;;;;;;;;;24.70;43.70;;;;;;5105928;27;19928;-62
2023/11/06 10:45:18;;;;;;;;;;;24.70;43.60;;;;;;5108529;27;19928;-61
2023/11/06 10:47:46;;;;;;;;;;;24.70;43.60;;;;;;5096019;27;19924;-64
2023/11/06 10:50:21;;;;;;;;;;;24.70;43.60;;;;;;5104016;27;20299;-60
2023/11/06 10:52:50;;;;;;;;;;;24.70;43.60;;;;;;5108991;27;20018;-64
2023/11/06 10:55:18;;;;;;;;;;;24.70;43.70;;;;;;5107385;27;19928;-61
2023/11/06 10:57:58;;;;;;;;;;;24.70;43.80;;;;;;5103083;27;19966;-61
2023/11/06 11:00:25;;;;;;;;;;;24.70;43.60;;;;;;5104797;27;19943;-61
2023/11/06 11:02:53;;;;;;;;;;;24.80;43.70;;;;;;5105604;27;20074;-63
2023/11/06 11:05:24;;;;;;;;;;;24.70;43.50;;;;;;5111505;27;19927;-63
2023/11/06 11:07:53;;;;;;;;;;;24.80;43.40;;;;;;5113914;27;20372;-64
2023/11/06 11:10:26;;;;;;;;;;;24.80;43.40;;;;;;5106681;27;19957;-63
2023/11/06 11:12:56;;;;;;;;;;;24.80;43.40;;;;;;5105386;28;20259;-63
2023/11/06 11:15:24;;;;;;;;;;;24.90;43.30;;;;;;5101904;27;20325;-63
2023/11/06 11:17:58;;;;;;;;;;;24.90;43.10;;;;;;5106852;27;20399;-64
2023/11/06 11:20:26;;;;;;;;;;;24.90;43.00;;;;;;5105930;27;19924;-63
2023/11/06 11:23:07;;;;;;;;;;;24.80;42.80;;;;;;5105664;27;19934;-63
2023/11/06 11:25:54;;;;;;;;;;;24.80;42.70;;;;;;5110421;27;19924;-63
2023/11/06 11:28:21;;;;;;;;;;;24.90;42.70;;;;;;5108884;27;19924;-64
2023/11/06 11:30:50;;;;;;;;;;;24.80;42.80;;;;;;5111850;27;21763;-65
2023/11/06 11:33:37;;;;;;;;;;;24.80;42.80;;;;;;5094860;27;19968;-65
2023/11/06 11:36:24;;;;;;;;;;;24.80;42.60;;;;;;5095488;27;19931;-65
2023/11/06 11:38:52;;;;;;;;;;;24.80;42.70;;;;;;5106819;27;19932;-65
2023/11/06 11:41:19;;;;;;;;;;;24.80;42.80;;;;;;5096211;28;20276;-63
2023/11/06 11:43:47;;;;;;;;;;;24.70;42.80;;;;;;5115640;27;19935;-63
2023/11/06 11:46:33;;;;;;;;;;;24.80;43.10;;;;;;5100514;27;19924;-62
2023/11/06 11:49:00;;;;;;;;;;;24.70;43.30;;;;;;5105684;27;20343;-62
2023/11/06 11:51:47;;;;;;;;;;;24.80;43.20;;;;;;5104300;27;19942;-63
2023/11/06 11:54:28;;;;;;;;;;;24.80;43.10;;;;;;5106330;27;19946;-65
2023/11/06 11:56:59;;;;;;;;;;;24.80;43.10;;;;;;5104732;28;20014;-65
2023/11/06 11:59:27;;;;;;;;;;;24.80;43.10;;;;;;5106085;27;19932;-65
2023/11/06 12:01:54;;;;;;;;;;;24.90;42.90;;;;;;5110365;27;19924;-64
2023/11/06 12:04:22;;;;;;;;;;;24.90;43.10;;;;;;5103921;27;19927;-64
2023/11/06 12:07:00;;;;;;;;;;;24.90;42.90;;;;;;5109812;27;19931;-64
2023/11/06 12:09:28;;;;;;;;;;;24.90;43.00;;;;;;5094637;27;19931;-65
2023/11/06 12:11:55;;;;;;;;;;;24.90;42.90;;;;;;5103661;27;19942;-65
2023/11/06 12:14:29;;;;;;;;;;;24.90;42.90;;;;;;5106063;27;19927;-64
2023/11/06 12:16:56;;;;;;;;;;;24.90;42.80;;;;;;5099928;27;20394;-65
2023/11/06 12:19:39;;;;;;;;;;;25.00;42.90;;;;;;5103985;27;20015;-63
2023/11/06 12:22:06;;;;;;;;;;;25.00;42.80;;;;;;5108242;27;19935;-65
2023/11/06 12:24:50;;;;;;;;;;;25.00;42.70;;;;;;5101395;27;19928;-64
2023/11/06 12:27:18;;;;;;;;;;;25.10;42.80;;;;;;5105553;27;19969;-65
2023/11/06 12:29:46;;;;;;;;;;;25.10;42.70;;;;;;5106214;27;19932;-65
2023/11/06 12:32:23;;;;;;;;;;;25.10;42.70;;;;;;5105240;27;19928;-66
2023/11/06 12:35:03;;;;;;;;;;;25.10;42.70;;;;;;5104165;27;19934;-64
2023/11/06 12:37:30;;;;;;;;;;;25.10;42.90;;;;;;5107992;27;19924;-66
2023/11/06 12:40:17;;;;;;;;;;;25.10;43.00;;;;;;5088573;28;19936;-69
2023/11/06 12:42:48;;;;;;;;;;;25.10;43.00;;;;;;5103806;27;19959;-63
2023/11/06 12:45:27;;;;;;;;;;;25.10;43.10;;;;;;5104541;27;20015;-65
2023/11/06 12:47:54;;;;;;;;;;;25.10;43.30;;;;;;5109054;27;20014;-63
2023/11/06 12:50:23;;;;;;;;;;;25.10;43.30;;;;;;5109512;27;19932;-64
2023/11/06 12:52:50;;;;;;;;;;;25.10;43.20;;;;;;5100613;27;19978;-65
2023/11/06 12:55:17;;;;;;;;;;;25.10;43.10;;;;;;5100662;27;19928;-64
2023/11/06 12:57:44;;;;;;;;;;;25.10;43.40;;;;;;5104465;27;19971;-62
2023/11/06 13:00:23;;;;;;;;;;;25.10;43.10;;;;;;5107255;27;19935;-64
2023/11/06 13:02:54;;;;;;;;;;;25.10;43.30;;;;;;5100303;27;19933;-65
2023/11/06 13:05:21;;;;;;;;;;;25.10;43.90;;;;;;5098985;27;19932;-65
2023/11/06 13:07:51;;;;;;;;;;;25.10;43.60;;;;;;5085588;28;19939;-65
2023/11/06 13:10:19;;;;;;;;;;;25.10;43.60;;;;;;5106123;28;19928;-65
2023/11/06 13:12:47;;;;;;;;;;;25.10;43.60;;;;;;5099542;27;19923;-65
2023/11/06 13:15:15;;;;;;;;;;;25.10;43.60;;;;;;5104480;27;19927;-67
2023/11/06 13:17:42;;;;;;;;;;;25.10;43.60;;;;;;5105844;28;19932;-66
2023/11/06 13:20:28;;;;;;;;;;;25.10;43.60;;;;;;5103914;28;19939;-67
2023/11/06 13:22:57;;;;;;;;;;;25.10;43.70;;;;;;5108787;28;19923;-65
2023/11/06 13:25:26;;;;;;;;;;;25.10;43.50;;;;;;5108363;28;19927;-69
2023/11/06 13:27:53;;;;;;;;;;;25.10;43.50;;;;;;5088156;28;19930;-65
2023/11/06 13:30:21;;;;;;;;;;;25.10;43.60;;;;;;5100149;28;20222;-66
2023/11/06 13:32:48;;;;;;;;;;;25.10;43.70;;;;;;5107945;28;19931;-64
2023/11/06 13:35:16;;;;;;;;;;;25.10;43.70;;;;;;5107014;28;19935;-65
2023/11/06 13:37:47;;;;;;;;;;;25.10;43.70;;;;;;5104126;28;19998;-65
2023/11/06 13:40:29;;;;;;;;;;;25.10;43.80;;;;;;5101463;28;19928;-63
2023/11/06 13:43:01;;;;;;;;;;;25.10;43.80;;;;;;5099042;28;19931;-64
2023/11/06 13:45:28;;;;;;;;;;;25.10;43.80;;;;;;5102208;28;19935;-64
2023/11/06 13:48:03;;;;;;;;;;;25.20;43.80;;;;;;5103269;28;19931;-65
2023/11/06 13:50:46;;;;;;;;;;;25.10;43.80;;;;;;5105038;28;20037;-62
2023/11/06 13:53:21;;;;;;;;;;;25.10;43.90;;;;;;5106431;28;19931;-64
2023/11/06 13:55:50;;;;;;;;;;;25.20;44.00;;;;;;5102861;28;20356;-65
2023/11/06 13:58:37;;;;;;;;;;;25.20;44.00;;;;;;5104720;28;19927;-62
2023/11/06 14:01:07;;;;;;;;;;;25.20;43.90;;;;;;5106893;28;19924;-64
2023/11/06 14:03:35;;;;;;;;;;;25.20;43.90;;;;;;5103575;28;19927;-64
2023/11/06 14:06:02;;;;;;;;;;;25.20;43.80;;;;;;5105607;28;20368;-63
2023/11/06 14:08:29;;;;;;;;;;;25.20;43.90;;;;;;5104956;28;19962;-62
2023/11/06 14:10:57;;;;;;;;;;;25.20;43.90;;;;;;5100373;28;19998;-64
2023/11/06 14:13:24;;;;;;;;;;;25.10;43.80;;;;;;5099585;28;20030;-65
2023/11/06 14:15:52;;;;;;;;;;;25.20;44.00;;;;;;5107588;28;19923;-63
2023/11/06 14:18:20;;;;;;;;;;;25.10;44.20;;;;;;5100931;28;19931;-63
2023/11/06 14:20:52;;;;;;;;;;;25.10;44.40;;;;;;5104196;27;20384;-63
2023/11/06 14:23:22;;;;;;;;;;;25.10;44.40;;;;;;5108811;27;19931;-63
2023/11/06 14:25:50;;;;;;;;;;;25.10;44.40;;;;;;5108386;27;20334;-65